Time;durP1;ratioP1;P1;durP2;ratioP2;P2;SDS_P1;SDS_P2;PMS_P1;PMS_P2;Temp;Humidity;BMP_temperature;BMP_pressure;BME280_temperature;BME280_humidity;BME280_pressure;Samples;Min_cycle;Max_cycle;Signal;HPM_P1;HPM_P2
2022/04/07 00:01:18;;;;;;;7.10;3.40;;;;;;;;;;5011929;28;20235;-60
2022/04/07 00:03:43;;;;;;;8.30;3.97;;;;;;;;;;5013166;28;20201;-60
2022/04/07 00:06:10;;;;;;;6.55;3.17;;;;;;;;;;5013034;28;20300;-60
2022/04/07 00:08:36;;;;;;;6.03;3.63;;;;;;;;;;5011757;28;20208;-60
2022/04/07 00:11:02;;;;;;;7.38;3.35;;;;;;;;;;5012569;28;20201;-60
2022/04/07 00:13:27;;;;;;;6.82;3.50;;;;;;;;;;5012076;28;20208;-60
2022/04/07 00:15:53;;;;;;;7.15;3.30;;;;;;;;;;5013021;28;20209;-60
2022/04/07 00:18:18;;;;;;;6.63;3.42;;;;;;;;;;5012395;28;20560;-60
2022/04/07 00:20:43;;;;;;;5.55;3.03;;;;;;;;;;5011840;28;20216;-60
2022/04/07 00:23:09;;;;;;;6.97;3.20;;;;;;;;;;5012252;28;20205;-60
2022/04/07 00:25:34;;;;;;;5.45;3.20;;;;;;;;;;5012721;28;20204;-60
2022/04/07 00:27:59;;;;;;;5.97;3.28;;;;;;;;;;5011770;28;20422;-60
2022/04/07 00:30:25;;;;;;;5.90;3.17;;;;;;;;;;5012330;28;20215;-60
2022/04/07 00:32:50;;;;;;;6.60;3.10;;;;;;;;;;5012470;28;20291;-60
2022/04/07 00:35:16;;;;;;;6.20;3.22;;;;;;;;;;5011305;28;20615;-60
2022/04/07 00:37:41;;;;;;;5.18;3.05;;;;;;;;;;5012436;28;20247;-60
2022/04/07 00:40:07;;;;;;;5.20;3.28;;;;;;;;;;5007936;28;20557;-60
2022/04/07 00:42:32;;;;;;;4.78;3.17;;;;;;;;;;5011833;28;20228;-60
2022/04/07 00:44:58;;;;;;;6.40;3.20;;;;;;;;;;5012522;28;20259;-60
2022/04/07 00:47:24;;;;;;;5.95;3.00;;;;;;;;;;5000502;28;20239;-60
2022/04/07 00:49:49;;;;;;;5.63;3.00;;;;;;;;;;4975992;28;20307;-60
2022/04/07 00:52:15;;;;;;;6.60;3.20;;;;;;;;;;4976842;28;20237;-60
2022/04/07 00:54:40;;;;;;;5.55;2.67;;;;;;;;;;4983341;28;20217;-60
2022/04/07 00:57:05;;;;;;;6.00;2.67;;;;;;;;;;4982549;28;20228;-60
2022/04/07 00:59:31;;;;;;;7.43;2.95;;;;;;;;;;4983688;28;20209;-60
2022/04/07 01:01:56;;;;;;;6.75;2.78;;;;;;;;;;5000839;28;20612;-60
2022/04/07 01:04:22;;;;;;;7.30;2.63;;;;;;;;;;4996885;28;20304;-60
2022/04/07 01:06:48;;;;;;;7.25;2.40;;;;;;;;;;5002634;28;20231;-60
2022/04/07 01:09:14;;;;;;;6.18;2.70;;;;;;;;;;4995830;28;20739;-60
2022/04/07 01:11:40;;;;;;;7.50;2.20;;;;;;;;;;4994009;28;20225;-60
2022/04/07 01:14:05;;;;;;;5.70;2.03;;;;;;;;;;4994282;28;20235;-60
2022/04/07 01:16:30;;;;;;;7.25;2.35;;;;;;;;;;5000439;28;20220;-60
2022/04/07 01:18:59;;;;;;;6.65;1.85;;;;;;;;;;5001558;28;20664;-60
2022/04/07 01:21:24;;;;;;;5.50;1.80;;;;;;;;;;4997805;28;20223;-60
2022/04/07 01:23:53;;;;;;;9.07;2.05;;;;;;;;;;4982642;28;20217;-60
2022/04/07 01:26:19;;;;;;;8.30;1.75;;;;;;;;;;5002035;28;20220;-60
2022/04/07 01:28:50;;;;;;;8.27;1.83;;;;;;;;;;5002320;28;20249;-60
2022/04/07 01:31:15;;;;;;;7.43;2.05;;;;;;;;;;4997600;28;20676;-60
2022/04/07 01:33:41;;;;;;;12.23;1.88;;;;;;;;;;4994573;28;20465;-60
2022/04/07 01:36:06;;;;;;;10.50;1.80;;;;;;;;;;4992144;28;20217;-60
2022/04/07 01:38:32;;;;;;;6.18;1.80;;;;;;;;;;4996338;28;20216;-60
2022/04/07 01:40:57;;;;;;;7.85;1.80;;;;;;;;;;5001404;28;20229;-60
2022/04/07 01:43:22;;;;;;;9.25;2.20;;;;;;;;;;4983560;28;20213;-60
2022/04/07 01:45:47;;;;;;;10.85;1.98;;;;;;;;;;4984561;28;20835;-60
2022/04/07 01:48:13;;;;;;;7.38;1.80;;;;;;;;;;4986691;28;20223;-60
2022/04/07 01:50:39;;;;;;;6.88;1.85;;;;;;;;;;4986913;28;20216;-60
2022/04/07 01:53:04;;;;;;;9.18;1.90;;;;;;;;;;5003338;28;20221;-60
2022/04/07 01:55:30;;;;;;;7.63;1.90;;;;;;;;;;4994143;28;20239;-60
2022/04/07 01:57:56;;;;;;;7.72;2.00;;;;;;;;;;4992769;28;21062;-60
2022/04/07 02:00:22;;;;;;;7.47;1.98;;;;;;;;;;4995513;28;20217;-60
2022/04/07 02:02:48;;;;;;;6.20;2.05;;;;;;;;;;5005460;28;20216;-59
2022/04/07 02:05:14;;;;;;;5.82;1.90;;;;;;;;;;5005096;28;20278;-60
2022/04/07 02:07:40;;;;;;;8.65;1.80;;;;;;;;;;5005135;28;20579;-60
2022/04/07 02:10:07;;;;;;;6.47;2.00;;;;;;;;;;5004733;28;20683;-60
2022/04/07 02:12:35;;;;;;;10.60;2.30;;;;;;;;;;5005427;28;20278;-60
2022/04/07 02:15:00;;;;;;;7.03;2.30;;;;;;;;;;5004944;28;20623;-59
2022/04/07 02:17:25;;;;;;;7.43;2.55;;;;;;;;;;4998670;28;20799;-60
2022/04/07 02:19:52;;;;;;;7.47;2.45;;;;;;;;;;4997518;28;20642;-60
2022/04/07 02:22:17;;;;;;;9.43;2.55;;;;;;;;;;4995110;28;20334;-59
2022/04/07 02:24:43;;;;;;;9.80;2.40;;;;;;;;;;5002848;28;20776;-60
2022/04/07 02:27:08;;;;;;;7.22;2.55;;;;;;;;;;5002979;28;20216;-60
2022/04/07 02:29:33;;;;;;;6.90;2.05;;;;;;;;;;5005084;28;20216;-59
2022/04/07 02:31:59;;;;;;;11.32;2.17;;;;;;;;;;5005766;28;20217;-60
2022/04/07 02:34:24;;;;;;;5.15;1.90;;;;;;;;;;5003919;28;20217;-60
2022/04/07 02:36:49;;;;;;;9.23;2.53;;;;;;;;;;5005270;28;20306;-59
2022/04/07 02:39:15;;;;;;;8.23;2.33;;;;;;;;;;5000797;28;20301;-59
2022/04/07 02:41:40;;;;;;;8.07;2.10;;;;;;;;;;4989823;28;20225;-59
2022/04/07 02:44:05;;;;;;;7.53;2.75;;;;;;;;;;4976882;28;20213;-60
2022/04/07 02:46:30;;;;;;;8.32;2.65;;;;;;;;;;4981414;28;20251;-60
2022/04/07 02:48:56;;;;;;;7.65;2.47;;;;;;;;;;4985349;28;20223;-60
2022/04/07 02:51:21;;;;;;;7.68;2.78;;;;;;;;;;5003842;28;20666;-61
2022/04/07 02:53:46;;;;;;;8.57;3.00;;;;;;;;;;5004617;28;20311;-60
2022/04/07 02:56:12;;;;;;;7.93;2.30;;;;;;;;;;4993533;28;20225;-60
2022/04/07 02:58:37;;;;;;;9.63;2.75;;;;;;;;;;4985494;28;20245;-60
2022/04/07 03:01:02;;;;;;;8.95;2.40;;;;;;;;;;4983595;28;20241;-60
2022/04/07 03:03:28;;;;;;;7.57;2.00;;;;;;;;;;4977373;28;20291;-59
2022/04/07 03:05:53;;;;;;;9.43;2.25;;;;;;;;;;4977321;28;20303;-59
2022/04/07 03:08:18;;;;;;;9.73;2.83;;;;;;;;;;4978089;28;20225;-59
2022/04/07 03:10:43;;;;;;;8.88;2.20;;;;;;;;;;4983971;28;20217;-60
2022/04/07 03:13:09;;;;;;;9.57;2.45;;;;;;;;;;4984871;28;20704;-59
2022/04/07 03:15:34;;;;;;;12.15;2.70;;;;;;;;;;4985160;28;20216;-60
2022/04/07 03:17:59;;;;;;;12.55;2.75;;;;;;;;;;4984614;28;20770;-60
2022/04/07 03:20:25;;;;;;;12.73;2.13;;;;;;;;;;4984416;28;20201;-60
2022/04/07 03:22:50;;;;;;;12.75;2.60;;;;;;;;;;4985170;28;20221;-60
2022/04/07 03:25:15;;;;;;;12.38;2.47;;;;;;;;;;4977696;28;20217;-60
2022/04/07 03:27:41;;;;;;;11.27;2.80;;;;;;;;;;4976863;28;20213;-60
2022/04/07 03:30:06;;;;;;;10.48;2.47;;;;;;;;;;4976376;28;20213;-60
2022/04/07 03:32:31;;;;;;;13.43;3.00;;;;;;;;;;5000284;28;20208;-60
2022/04/07 03:34:57;;;;;;;13.00;2.60;;;;;;;;;;5019375;28;20231;-60
2022/04/07 03:37:22;;;;;;;13.55;2.78;;;;;;;;;;5002611;28;20220;-60
2022/04/07 03:39:49;;;;;;;11.65;2.63;;;;;;;;;;5004116;28;20220;-60
2022/04/07 03:42:15;;;;;;;12.48;2.60;;;;;;;;;;4992482;28;20213;-60
2022/04/07 03:44:40;;;;;;;15.77;2.55;;;;;;;;;;4984142;28;20631;-60
2022/04/07 03:47:05;;;;;;;13.40;2.28;;;;;;;;;;4981300;28;20695;-60
2022/04/07 03:49:31;;;;;;;11.60;2.33;;;;;;;;;;4976205;28;20217;-60
2022/04/07 03:51:56;;;;;;;15.65;2.60;;;;;;;;;;4994274;28;20579;-60
2022/04/07 03:54:21;;;;;;;13.10;2.67;;;;;;;;;;4998261;28;20676;-60
2022/04/07 03:56:47;;;;;;;15.55;2.63;;;;;;;;;;4989135;28;20235;-60
2022/04/07 03:59:12;;;;;;;8.57;1.95;;;;;;;;;;4983176;28;20672;-60
2022/04/07 04:01:39;;;;;;;14.43;2.55;;;;;;;;;;4984654;28;20247;-60
2022/04/07 04:04:04;;;;;;;14.55;2.70;;;;;;;;;;5002986;28;20316;-60
2022/04/07 04:06:30;;;;;;;12.68;2.55;;;;;;;;;;5002797;28;20295;-60
2022/04/07 04:08:55;;;;;;;11.15;2.42;;;;;;;;;;5001439;28;20212;-60
2022/04/07 04:11:21;;;;;;;13.38;2.58;;;;;;;;;;4994995;28;20785;-60
2022/04/07 04:13:46;;;;;;;14.48;2.60;;;;;;;;;;4994572;28;20696;-60
2022/04/07 04:16:14;;;;;;;15.65;2.70;;;;;;;;;;4995507;28;20228;-60
2022/04/07 04:18:40;;;;;;;12.88;2.63;;;;;;;;;;5002555;28;20278;-60
2022/04/07 04:21:05;;;;;;;14.40;2.42;;;;;;;;;;5001856;28;20212;-60
2022/04/07 04:23:30;;;;;;;14.02;2.50;;;;;;;;;;4984043;28;20217;-59
2022/04/07 04:25:56;;;;;;;11.63;2.50;;;;;;;;;;4984011;28;20549;-59
2022/04/07 04:28:21;;;;;;;13.55;2.53;;;;;;;;;;4982734;28;20790;-59
2022/04/07 04:30:46;;;;;;;11.50;2.38;;;;;;;;;;4983717;28;20217;-59
2022/04/07 04:33:11;;;;;;;9.32;2.30;;;;;;;;;;4978201;28;20209;-59
2022/04/07 04:35:37;;;;;;;10.40;2.50;;;;;;;;;;4994363;28;20649;-59
2022/04/07 04:38:02;;;;;;;10.65;2.53;;;;;;;;;;4994616;28;20739;-59
2022/04/07 04:40:27;;;;;;;18.15;2.65;;;;;;;;;;5000117;28;20240;-59
2022/04/07 04:42:52;;;;;;;11.98;2.35;;;;;;;;;;4986046;28;20295;-59
2022/04/07 04:45:18;;;;;;;10.68;2.20;;;;;;;;;;4983323;28;20581;-59
2022/04/07 04:47:43;;;;;;;12.18;2.42;;;;;;;;;;4993210;28;20527;-59
2022/04/07 04:50:09;;;;;;;10.10;2.33;;;;;;;;;;4983179;28;20240;-59
2022/04/07 04:52:34;;;;;;;10.38;2.63;;;;;;;;;;4983174;28;20337;-59
2022/04/07 04:54:59;;;;;;;11.57;1.98;;;;;;;;;;4980682;28;20361;-59
2022/04/07 04:57:24;;;;;;;11.20;2.22;;;;;;;;;;4975454;28;20229;-59
2022/04/07 04:59:50;;;;;;;13.52;2.30;;;;;;;;;;4975759;28;20425;-59
2022/04/07 05:02:15;;;;;;;9.10;2.03;;;;;;;;;;4976608;28;20210;-59
2022/04/07 05:04:40;;;;;;;7.90;2.13;;;;;;;;;;4983634;28;20216;-59
2022/04/07 05:07:06;;;;;;;13.35;2.00;;;;;;;;;;4982836;28;20312;-59
2022/04/07 05:09:31;;;;;;;11.05;2.35;;;;;;;;;;4982748;28;20550;-59
2022/04/07 05:11:56;;;;;;;10.13;2.22;;;;;;;;;;4983366;28;20220;-59
2022/04/07 05:14:22;;;;;;;7.53;1.83;;;;;;;;;;4982897;28;20220;-59
2022/04/07 05:16:47;;;;;;;7.95;1.80;;;;;;;;;;4982368;28;20229;-59
2022/04/07 05:19:12;;;;;;;8.87;2.00;;;;;;;;;;4975710;28;20509;-59
2022/04/07 05:21:37;;;;;;;9.70;2.03;;;;;;;;;;4979493;28;20530;-59
2022/04/07 05:24:03;;;;;;;9.30;1.70;;;;;;;;;;4978512;28;20308;-59
2022/04/07 05:26:28;;;;;;;7.57;1.77;;;;;;;;;;4985918;28;20672;-60
2022/04/07 05:28:53;;;;;;;7.70;1.63;;;;;;;;;;4987277;28;20699;-60
2022/04/07 05:31:19;;;;;;;5.32;1.38;;;;;;;;;;4986186;28;20887;-60
2022/04/07 05:33:44;;;;;;;10.00;1.70;;;;;;;;;;4986934;28;20213;-60
2022/04/07 05:36:10;;;;;;;4.70;1.63;;;;;;;;;;4986933;28;20304;-60
2022/04/07 05:38:35;;;;;;;4.57;1.38;;;;;;;;;;4986135;28;20312;-60
2022/04/07 05:41:00;;;;;;;5.57;1.40;;;;;;;;;;4983691;28;20221;-61
2022/04/07 05:43:25;;;;;;;6.03;1.30;;;;;;;;;;4978761;28;20209;-60
2022/04/07 05:45:52;;;;;;;4.68;1.60;;;;;;;;;;4978247;28;20276;-61
2022/04/07 05:48:17;;;;;;;3.50;1.30;;;;;;;;;;4987149;28;20241;-61
2022/04/07 05:50:42;;;;;;;5.85;1.48;;;;;;;;;;5005527;28;20919;-60
2022/04/07 05:53:08;;;;;;;4.45;1.08;;;;;;;;;;5004413;28;20235;-61
2022/04/07 05:55:33;;;;;;;2.72;0.95;;;;;;;;;;5001524;28;20213;-60
2022/04/07 05:58:05;;;;;;;4.68;1.52;;;;;;;;;;4986260;28;20213;-61
2022/04/07 06:00:30;;;;;;;6.50;1.38;;;;;;;;;;5005940;28;20676;-60
2022/04/07 06:02:56;;;;;;;4.95;1.30;;;;;;;;;;5003898;28;20231;-60
2022/04/07 06:05:21;;;;;;;4.60;1.30;;;;;;;;;;4997218;28;20655;-60
2022/04/07 06:07:46;;;;;;;3.70;1.08;;;;;;;;;;4997590;28;20687;-60
2022/04/07 06:10:12;;;;;;;4.32;1.25;;;;;;;;;;4998933;28;20224;-61
2022/04/07 06:12:42;;;;;;;4.55;1.60;;;;;;;;;;5005167;28;20212;-61
2022/04/07 06:15:07;;;;;;;5.15;1.73;;;;;;;;;;5005110;28;20303;-60
2022/04/07 06:17:33;;;;;;;6.25;1.60;;;;;;;;;;4993091;28;20221;-60
2022/04/07 06:19:58;;;;;;;6.53;1.60;;;;;;;;;;4981731;28;20676;-60
2022/04/07 06:22:24;;;;;;;5.20;1.80;;;;;;;;;;4985336;28;20630;-60
2022/04/07 06:24:49;;;;;;;5.30;1.70;;;;;;;;;;4985257;28;20217;-60
2022/04/07 06:27:14;;;;;;;4.25;1.60;;;;;;;;;;4978330;28;20608;-59
2022/04/07 06:29:40;;;;;;;4.80;1.85;;;;;;;;;;4978138;28;20217;-59
2022/04/07 06:32:05;;;;;;;4.43;1.40;;;;;;;;;;4977888;28;20213;-59
2022/04/07 06:34:30;;;;;;;2.80;1.40;;;;;;;;;;4983564;28;20205;-59
2022/04/07 06:36:56;;;;;;;4.65;1.63;;;;;;;;;;4983141;28;20220;-59
2022/04/07 06:39:21;;;;;;;4.75;1.58;;;;;;;;;;4984650;28;20205;-59
2022/04/07 06:41:46;;;;;;;4.68;1.90;;;;;;;;;;4983831;28;20704;-59
2022/04/07 06:44:12;;;;;;;4.55;1.90;;;;;;;;;;4985332;28;20209;-60
2022/04/07 06:46:37;;;;;;;5.25;1.80;;;;;;;;;;5003338;28;20320;-59
2022/04/07 06:49:02;;;;;;;5.07;2.15;;;;;;;;;;4981086;28;20296;-59
2022/04/07 06:51:28;;;;;;;7.03;2.28;;;;;;;;;;4977276;28;20716;-60
2022/04/07 06:53:53;;;;;;;7.82;2.47;;;;;;;;;;4977135;28;20231;-59
2022/04/07 06:56:19;;;;;;;6.20;2.47;;;;;;;;;;4980285;28;20224;-59
2022/04/07 06:58:44;;;;;;;5.75;2.53;;;;;;;;;;4984914;28;20217;-59
2022/04/07 07:01:09;;;;;;;8.88;2.60;;;;;;;;;;4988808;28;20220;-59
2022/04/07 07:03:34;;;;;;;6.90;2.42;;;;;;;;;;5008002;28;20232;-59
2022/04/07 07:06:00;;;;;;;7.85;2.40;;;;;;;;;;5013718;28;20637;-59
2022/04/07 07:08:25;;;;;;;5.55;2.08;;;;;;;;;;5013453;28;20208;-59
2022/04/07 07:10:51;;;;;;;2.05;0.65;;;;;;;;;;5014636;28;20219;-59
2022/04/07 07:13:16;;;;;;;1.35;0.40;;;;;;;;;;5013986;28;20223;-59
2022/04/07 07:15:42;;;;;;;3.22;0.50;;;;;;;;;;5013600;28;20228;-59
2022/04/07 07:18:07;;;;;;;5.38;0.63;;;;;;;;;;5013655;28;20311;-59
2022/04/07 07:20:33;;;;;;;6.43;1.00;;;;;;;;;;5013853;28;20578;-59
2022/04/07 07:22:58;;;;;;;2.50;0.47;;;;;;;;;;5013474;28;20212;-59
2022/04/07 07:25:23;;;;;;;1.73;0.50;;;;;;;;;;5014022;28;20660;-59
2022/04/07 07:27:49;;;;;;;3.63;0.50;;;;;;;;;;5014323;28;20259;-59
2022/04/07 07:30:15;;;;;;;2.75;0.40;;;;;;;;;;5012975;28;20588;-59
2022/04/07 07:32:41;;;;;;;2.53;0.60;;;;;;;;;;5014001;28;20222;-59
2022/04/07 07:35:07;;;;;;;2.65;0.50;;;;;;;;;;5013050;28;20220;-58
2022/04/07 07:37:32;;;;;;;3.88;0.90;;;;;;;;;;5013267;28;20703;-59
2022/04/07 07:40:04;;;;;;;3.83;0.85;;;;;;;;;;5013816;28;20220;-59
2022/04/07 07:42:30;;;;;;;4.03;0.70;;;;;;;;;;5012736;28;20252;-59
2022/04/07 07:44:55;;;;;;;2.90;0.77;;;;;;;;;;5013078;28;20208;-59
2022/04/07 07:47:20;;;;;;;3.22;0.65;;;;;;;;;;5012130;28;20252;-58
2022/04/07 07:49:46;;;;;;;5.18;0.85;;;;;;;;;;5013105;28;20212;-59
2022/04/07 07:52:11;;;;;;;3.92;0.70;;;;;;;;;;5012060;28;20275;-59
2022/04/07 07:54:36;;;;;;;3.58;0.75;;;;;;;;;;5013745;28;20216;-59
2022/04/07 07:57:02;;;;;;;4.00;0.85;;;;;;;;;;5013066;28;20374;-59
2022/04/07 07:59:28;;;;;;;3.00;0.70;;;;;;;;;;5012662;28;20219;-59
2022/04/07 08:01:53;;;;;;;3.92;0.90;;;;;;;;;;5013258;28;20216;-59
2022/04/07 08:04:18;;;;;;;4.75;0.82;;;;;;;;;;5012356;28;20216;-58
2022/04/07 08:06:44;;;;;;;3.60;0.90;;;;;;;;;;5012702;28;20227;-59
2022/04/07 08:09:10;;;;;;;6.35;0.70;;;;;;;;;;5011032;28;20216;-59
2022/04/07 08:11:36;;;;;;;6.53;1.20;;;;;;;;;;5008558;28;20208;-59
2022/04/07 08:14:01;;;;;;;4.27;1.50;;;;;;;;;;5001106;28;20694;-59
2022/04/07 08:16:30;;;;;;;5.43;1.10;;;;;;;;;;5029008;28;20258;-59
2022/04/07 08:18:55;;;;;;;3.00;0.82;;;;;;;;;;5030597;28;20627;-59
2022/04/07 08:21:20;;;;;;;3.47;0.80;;;;;;;;;;5018724;28;20220;-59
2022/04/07 08:23:45;;;;;;;4.05;0.82;;;;;;;;;;5013289;28;20224;-59
2022/04/07 08:26:11;;;;;;;3.88;1.00;;;;;;;;;;5012006;28;20226;-59
2022/04/07 08:28:36;;;;;;;2.53;0.75;;;;;;;;;;5012807;28;20220;-59
2022/04/07 08:31:01;;;;;;;4.13;1.30;;;;;;;;;;5032395;28;20218;-59
2022/04/07 08:33:27;;;;;;;3.47;0.70;;;;;;;;;;5022201;28;20205;-58
2022/04/07 08:35:54;;;;;;;2.97;0.77;;;;;;;;;;5012101;28;20205;-58
2022/04/07 08:38:19;;;;;;;4.17;0.80;;;;;;;;;;5012033;28;20684;-59
2022/04/07 08:40:45;;;;;;;3.47;1.00;;;;;;;;;;5012040;28;20219;-59
2022/04/07 08:43:10;;;;;;;3.67;0.80;;;;;;;;;;5011136;28;20315;-59
2022/04/07 08:45:36;;;;;;;3.03;0.95;;;;;;;;;;5032764;28;20674;-59
2022/04/07 08:48:01;;;;;;;3.37;1.07;;;;;;;;;;5018197;28;20208;-59
2022/04/07 08:50:26;;;;;;;5.90;0.98;;;;;;;;;;5030386;28;20219;-59
2022/04/07 08:52:52;;;;;;;3.47;0.90;;;;;;;;;;5032328;28;20252;-59
2022/04/07 08:55:18;;;;;;;4.40;1.00;;;;;;;;;;5030915;28;20212;-60
2022/04/07 08:57:43;;;;;;;6.10;1.08;;;;;;;;;;5031366;28;20703;-60
2022/04/07 09:00:08;;;;;;;6.78;1.38;;;;;;;;;;5010992;28;20217;-60
2022/04/07 09:02:34;;;;;;;3.63;0.90;;;;;;;;;;5012017;28;20234;-60
2022/04/07 09:04:59;;;;;;;3.72;1.00;;;;;;;;;;5012422;28;20212;-60
2022/04/07 09:07:31;;;;;;;3.58;1.00;;;;;;;;;;5012214;28;20287;-60
2022/04/07 09:09:59;;;;;;;6.32;1.30;;;;;;;;;;5008112;28;20235;-60
2022/04/07 09:12:24;;;;;;;4.55;1.20;;;;;;;;;;5011848;28;20220;-60
2022/04/07 09:14:53;;;;;;;3.55;1.10;;;;;;;;;;5012816;28;20208;-60
2022/04/07 09:17:19;;;;;;;3.53;1.08;;;;;;;;;;5011149;28;20228;-60
2022/04/07 09:19:45;;;;;;;4.05;1.20;;;;;;;;;;5012071;28;20227;-60
2022/04/07 09:22:11;;;;;;;3.13;0.90;;;;;;;;;;5007171;28;20231;-60
2022/04/07 09:24:37;;;;;;;3.47;1.08;;;;;;;;;;5012632;28;20220;-72
2022/04/07 09:27:03;;;;;;;4.53;1.10;;;;;;;;;;5010874;28;20615;-72
2022/04/07 09:29:37;;;;;;;4.05;1.00;;;;;;;;;;5010085;28;20671;-70
2022/04/07 09:32:03;;;;;;;5.35;1.20;;;;;;;;;;5009520;28;20327;-70
2022/04/07 09:34:29;;;;;;;3.90;0.90;;;;;;;;;;5031921;28;20651;-69
2022/04/07 09:37:03;;;;;;;5.22;0.70;;;;;;;;;;5031267;28;20323;-69
2022/04/07 09:39:28;;;;;;;4.75;0.98;;;;;;;;;;5031804;28;20218;-69
2022/04/07 09:41:54;;;;;;;4.78;0.98;;;;;;;;;;5032199;28;20290;-69
2022/04/07 09:44:19;;;;;;;4.88;1.13;;;;;;;;;;5031144;28;20690;-69
2022/04/07 09:46:44;;;;;;;5.47;1.20;;;;;;;;;;5031285;28;20219;-69
2022/04/07 09:49:10;;;;;;;9.52;1.50;;;;;;;;;;5011508;28;20216;-69
2022/04/07 09:51:36;;;;;;;7.07;1.20;;;;;;;;;;5009077;28;20231;-70
2022/04/07 09:54:01;;;;;;;4.97;1.05;;;;;;;;;;5011925;28;20625;-69
2022/04/07 09:56:28;;;;;;;5.95;1.17;;;;;;;;;;5010975;28;20282;-70
2022/04/07 09:58:54;;;;;;;5.50;1.02;;;;;;;;;;5011420;28;20258;-70
2022/04/07 10:01:19;;;;;;;6.72;1.25;;;;;;;;;;5010557;28;20299;-69
2022/04/07 10:03:44;;;;;;;6.05;1.30;;;;;;;;;;5010987;28;20217;-70
2022/04/07 10:06:09;;;;;;;6.78;1.10;;;;;;;;;;5012036;28;20296;-69
2022/04/07 10:08:35;;;;;;;7.47;1.33;;;;;;;;;;5014478;28;20216;-71
2022/04/07 10:11:00;;;;;;;5.50;1.10;;;;;;;;;;5015741;28;20224;-69
2022/04/07 10:13:25;;;;;;;6.57;1.10;;;;;;;;;;5013385;28;20627;-70
2022/04/07 10:15:51;;;;;;;5.53;1.10;;;;;;;;;;5015848;28;20220;-70
2022/04/07 10:18:24;;;;;;;8.80;1.60;;;;;;;;;;5014019;28;20649;-70
2022/04/07 10:20:49;;;;;;;5.05;1.02;;;;;;;;;;5015243;28;20671;-70
2022/04/07 10:23:30;;;;;;;7.00;1.15;;;;;;;;;;5013716;28;20216;-71
2022/04/07 10:25:55;;;;;;;6.72;1.13;;;;;;;;;;5012766;28;20271;-60
2022/04/07 10:28:21;;;;;;;7.25;1.10;;;;;;;;;;4986581;28;20237;-60
2022/04/07 10:30:47;;;;;;;5.28;1.10;;;;;;;;;;4994462;28;20213;-60
2022/04/07 10:33:30;;;;;;;6.05;1.20;;;;;;;;;;4994242;28;20272;-60
2022/04/07 10:35:55;;;;;;;7.97;1.17;;;;;;;;;;4995588;28;20217;-60
2022/04/07 10:38:34;;;;;;;4.57;0.93;;;;;;;;;;4993743;28;20225;-61
2022/04/07 10:41:01;;;;;;;5.40;1.02;;;;;;;;;;4994822;28;20564;-61
2022/04/07 10:43:26;;;;;;;7.80;1.33;;;;;;;;;;4995330;28;20209;-60
2022/04/07 10:46:14;;;;;;;5.70;1.00;;;;;;;;;;4995671;28;20567;-60
2022/04/07 10:48:46;;;;;;;6.07;0.88;;;;;;;;;;5010211;28;20220;-60
2022/04/07 10:51:12;;;;;;;6.55;1.10;;;;;;;;;;5012923;28;20224;-60
2022/04/07 10:53:39;;;;;;;4.55;1.05;;;;;;;;;;5014026;28;20233;-60
2022/04/07 10:56:06;;;;;;;8.05;1.70;;;;;;;;;;5014550;28;20581;-60
2022/04/07 10:58:45;;;;;;;8.13;1.60;;;;;;;;;;5014437;28;20712;-60
2022/04/07 11:01:12;;;;;;;8.63;1.27;;;;;;;;;;5011599;28;20220;-60
2022/04/07 11:03:41;;;;;;;9.25;1.63;;;;;;;;;;5013995;28;20238;-61
2022/04/07 11:06:07;;;;;;;7.15;1.38;;;;;;;;;;5013956;28;20200;-61
2022/04/07 11:08:33;;;;;;;7.15;1.50;;;;;;;;;;5013310;28;20212;-60
2022/04/07 11:10:58;;;;;;;8.18;1.58;;;;;;;;;;5014244;28;20204;-60
2022/04/07 11:13:40;;;;;;;8.57;1.80;;;;;;;;;;5013554;28;20216;-60
2022/04/07 11:16:10;;;;;;;9.57;2.40;;;;;;;;;;5010767;28;20204;-61
2022/04/07 11:18:40;;;;;;;10.05;2.20;;;;;;;;;;5013422;28;20224;-60
2022/04/07 11:21:11;;;;;;;13.20;3.08;;;;;;;;;;5007527;28;20287;-61
2022/04/07 11:23:38;;;;;;;11.48;3.00;;;;;;;;;;5012175;28;20209;-60
2022/04/07 11:26:11;;;;;;;13.63;3.85;;;;;;;;;;5013551;28;20574;-61
2022/04/07 11:28:37;;;;;;;15.05;3.03;;;;;;;;;;5012939;28;20236;-59
2022/04/07 11:31:04;;;;;;;21.02;8.00;;;;;;;;;;5013905;28;20223;-60
2022/04/07 11:33:35;;;;;;;18.92;4.93;;;;;;;;;;5013955;28;20235;-60
2022/04/07 11:36:00;;;;;;;19.10;6.05;;;;;;;;;;5013036;28;20212;-60
2022/04/07 11:38:27;;;;;;;14.15;4.80;;;;;;;;;;5013664;28;20561;-59
2022/04/07 11:40:58;;;;;;;13.05;2.40;;;;;;;;;;5013930;28;20658;-61
2022/04/07 11:43:24;;;;;;;17.30;2.90;;;;;;;;;;5012757;28;20215;-60
2022/04/07 11:45:49;;;;;;;12.07;1.70;;;;;;;;;;5013815;28;20216;-60
2022/04/07 11:48:14;;;;;;;13.63;2.13;;;;;;;;;;5013149;28;20216;-60
2022/04/07 11:50:40;;;;;;;12.73;2.33;;;;;;;;;;5013060;28;20213;-60
2022/04/07 11:53:05;;;;;;;12.95;2.17;;;;;;;;;;5012009;28;20725;-60
2022/04/07 11:55:31;;;;;;;17.52;2.55;;;;;;;;;;5013581;28;20208;-60
2022/04/07 11:57:58;;;;;;;9.88;1.75;;;;;;;;;;5008992;28;20224;-60
2022/04/07 12:00:27;;;;;;;14.85;2.10;;;;;;;;;;5022758;28;20224;-60
2022/04/07 12:02:58;;;;;;;9.35;1.80;;;;;;;;;;5031843;28;20222;-60
2022/04/07 12:05:24;;;;;;;12.50;1.80;;;;;;;;;;5031055;28;20250;-60
2022/04/07 12:07:49;;;;;;;10.45;1.92;;;;;;;;;;5033110;28;20216;-60
2022/04/07 12:10:15;;;;;;;9.50;1.70;;;;;;;;;;5032337;28;20203;-60
2022/04/07 12:12:41;;;;;;;10.82;2.10;;;;;;;;;;5023127;28;20220;-60
2022/04/07 12:15:06;;;;;;;13.15;1.90;;;;;;;;;;5012917;28;20209;-60
2022/04/07 12:17:33;;;;;;;12.45;2.03;;;;;;;;;;5013096;28;20227;-60
2022/04/07 12:19:58;;;;;;;11.10;2.00;;;;;;;;;;5010219;28;20607;-60
2022/04/07 12:22:28;;;;;;;11.88;2.30;;;;;;;;;;5020519;28;20295;-60
2022/04/07 12:25:02;;;;;;;15.57;2.00;;;;;;;;;;5029017;28;20228;-60
2022/04/07 12:27:28;;;;;;;14.30;2.13;;;;;;;;;;5032732;28;20299;-61
2022/04/07 12:29:53;;;;;;;13.90;1.90;;;;;;;;;;5032332;28;20647;-60
2022/04/07 12:32:18;;;;;;;13.07;1.85;;;;;;;;;;5031386;28;20580;-60
2022/04/07 12:34:54;;;;;;;11.65;2.08;;;;;;;;;;5032931;28;20303;-63
2022/04/07 12:37:30;;;;;;;13.77;2.60;;;;;;;;;;5032147;28;20224;-61
2022/04/07 12:39:55;;;;;;;10.40;2.22;;;;;;;;;;5031544;28;20273;-60
2022/04/07 12:42:21;;;;;;;12.80;2.40;;;;;;;;;;5028464;28;20219;-60
2022/04/07 12:44:48;;;;;;;10.00;2.17;;;;;;;;;;5010772;28;20248;-60
2022/04/07 12:47:15;;;;;;;11.15;1.88;;;;;;;;;;5004749;28;20204;-60
2022/04/07 12:49:52;;;;;;;11.43;1.95;;;;;;;;;;5008397;28;20220;-60
2022/04/07 12:52:19;;;;;;;15.32;2.03;;;;;;;;;;5004234;28;20484;-61
2022/04/07 12:54:54;;;;;;;12.20;1.85;;;;;;;;;;5012099;28;20213;-61
2022/04/07 12:57:19;;;;;;;10.13;1.73;;;;;;;;;;5011001;28;20228;-61
2022/04/07 12:59:54;;;;;;;10.77;1.73;;;;;;;;;;5011370;28;20737;-61
2022/04/07 13:02:19;;;;;;;12.30;2.03;;;;;;;;;;5011354;28;20212;-61
2022/04/07 13:04:46;;;;;;;10.82;2.40;;;;;;;;;;5012771;28;20753;-61
2022/04/07 13:07:11;;;;;;;9.13;1.80;;;;;;;;;;5011568;28;20247;-61
2022/04/07 13:09:37;;;;;;;12.68;1.95;;;;;;;;;;5012782;28;20243;-61
2022/04/07 13:12:02;;;;;;;15.60;2.30;;;;;;;;;;5010214;28;20295;-61
2022/04/07 13:14:27;;;;;;;20.17;4.57;;;;;;;;;;5016389;28;20261;-61
2022/04/07 13:16:53;;;;;;;12.63;2.35;;;;;;;;;;5024856;28;20228;-61
2022/04/07 13:19:18;;;;;;;13.10;2.72;;;;;;;;;;5011760;28;20213;-61
2022/04/07 13:21:43;;;;;;;13.48;2.10;;;;;;;;;;5020740;28;20224;-61
2022/04/07 13:24:09;;;;;;;12.40;3.10;;;;;;;;;;5011532;28;20216;-61
2022/04/07 13:26:34;;;;;;;10.70;1.80;;;;;;;;;;5012061;28;20213;-61
2022/04/07 13:29:00;;;;;;;9.20;1.48;;;;;;;;;;5011012;28;20204;-61
2022/04/07 13:31:25;;;;;;;9.07;1.60;;;;;;;;;;5011521;28;20216;-61
2022/04/07 13:33:51;;;;;;;12.73;1.52;;;;;;;;;;5008717;28;20698;-61
2022/04/07 13:36:16;;;;;;;7.85;1.52;;;;;;;;;;5011208;28;20216;-61
2022/04/07 13:38:41;;;;;;;13.60;1.90;;;;;;;;;;5012331;28;20240;-61
2022/04/07 13:41:07;;;;;;;7.18;1.42;;;;;;;;;;5013108;28;20287;-61
2022/04/07 13:43:33;;;;;;;8.52;1.80;;;;;;;;;;5015356;28;20205;-61
2022/04/07 13:45:58;;;;;;;12.18;1.63;;;;;;;;;;5016166;28;20213;-61
2022/04/07 13:48:24;;;;;;;5.75;1.25;;;;;;;;;;5015108;28;20552;-61
2022/04/07 13:50:49;;;;;;;9.25;1.55;;;;;;;;;;5015285;28;20639;-61
2022/04/07 13:53:16;;;;;;;12.32;1.88;;;;;;;;;;5013420;28;20220;-61
2022/04/07 13:55:42;;;;;;;7.00;1.50;;;;;;;;;;5015672;28;20247;-61
2022/04/07 13:58:08;;;;;;;8.82;1.50;;;;;;;;;;5014162;28;20228;-60
2022/04/07 14:00:34;;;;;;;8.38;1.58;;;;;;;;;;5015263;28;20211;-61
2022/04/07 14:03:00;;;;;;;9.95;1.90;;;;;;;;;;5015646;28;20267;-61
2022/04/07 14:05:25;;;;;;;10.10;1.60;;;;;;;;;;5014719;28;20307;-61
2022/04/07 14:07:51;;;;;;;12.02;1.38;;;;;;;;;;5015789;28;20225;-61
2022/04/07 14:10:17;;;;;;;8.30;1.30;;;;;;;;;;5014970;28;20238;-61
2022/04/07 14:12:42;;;;;;;8.95;1.70;;;;;;;;;;5014668;28;20231;-61
2022/04/07 14:15:07;;;;;;;6.35;1.15;;;;;;;;;;5013929;28;20212;-61
2022/04/07 14:17:33;;;;;;;8.75;1.60;;;;;;;;;;5013557;28;20224;-62
2022/04/07 14:19:58;;;;;;;8.88;1.85;;;;;;;;;;5012957;28;20624;-61
2022/04/07 14:22:23;;;;;;;9.05;1.88;;;;;;;;;;5014283;28;20687;-61
2022/04/07 14:24:49;;;;;;;9.77;1.87;;;;;;;;;;5013981;28;20434;-63
2022/04/07 14:27:14;;;;;;;9.10;1.67;;;;;;;;;;5014370;28;20224;-61
2022/04/07 14:29:39;;;;;;;11.00;1.60;;;;;;;;;;5015327;28;20664;-59
2022/04/07 14:32:05;;;;;;;11.95;1.95;;;;;;;;;;5013934;28;20216;-62